createdAt,value
2022-12-03T00:00:38.352Z,16
2022-12-03T00:04:38.525Z,14
2022-12-03T00:06:38.623Z,15
2022-12-03T00:08:38.724Z,15
2022-12-03T00:10:38.799Z,15
2022-12-03T00:12:38.902Z,16
2022-12-03T00:14:44.368Z,15
2022-12-03T00:16:39.075Z,15
2022-12-03T00:18:39.156Z,14
2022-12-03T00:20:39.522Z,12
2022-12-03T00:22:39.319Z,14
2022-12-03T00:24:39.412Z,15
2022-12-03T00:26:39.500Z,15
2022-12-03T00:28:39.592Z,15
2022-12-03T00:30:39.807Z,15
2022-12-03T00:32:39.761Z,14
2022-12-03T00:34:39.878Z,12
2022-12-03T00:36:39.955Z,12
2022-12-03T00:38:40.054Z,12
2022-12-03T00:40:40.130Z,11
2022-12-03T00:42:40.203Z,9
2022-12-03T00:44:40.304Z,11
2022-12-03T00:46:40.479Z,13
2022-12-03T00:48:40.476Z,12
2022-12-03T00:50:40.586Z,10
2022-12-03T00:52:40.660Z,10
2022-12-03T00:54:40.756Z,9
2022-12-03T00:58:40.909Z,9
2022-12-03T01:00:41.011Z,10
2022-12-03T01:02:41.134Z,12
2022-12-03T01:04:41.335Z,10
2022-12-03T01:06:41.270Z,13
2022-12-03T01:08:41.349Z,11
2022-12-03T01:10:41.443Z,11
2022-12-03T01:12:41.537Z,12
2022-12-03T01:14:41.616Z,13
2022-12-03T01:16:41.704Z,12
2022-12-03T01:18:41.790Z,14
2022-12-03T01:20:41.910Z,14
2022-12-03T01:22:42.000Z,10
2022-12-03T01:25:12.105Z,11
2022-12-03T01:27:12.224Z,12
2022-12-03T01:29:12.333Z,12
2022-12-03T01:31:12.468Z,10
2022-12-03T01:33:12.575Z,11
2022-12-03T01:35:12.710Z,10
2022-12-03T01:37:12.822Z,11
2022-12-03T01:39:12.926Z,12
2022-12-03T01:41:13.066Z,11
2022-12-03T01:43:13.236Z,9
2022-12-03T01:45:13.292Z,10
2022-12-03T01:47:13.393Z,10
2022-12-03T01:49:13.507Z,11
2022-12-03T01:51:13.603Z,10
2022-12-03T01:53:13.723Z,9
2022-12-03T01:55:13.833Z,10
2022-12-03T01:57:13.944Z,10
2022-12-03T01:59:14.077Z,9
2022-12-03T02:01:14.272Z,10
2022-12-03T02:03:14.312Z,15
2022-12-03T02:05:14.430Z,13
2022-12-03T02:07:14.531Z,11
2022-12-03T02:09:14.661Z,13
2022-12-03T02:11:14.771Z,13
2022-12-03T02:13:14.858Z,13
2022-12-03T02:15:15.007Z,12
2022-12-03T02:17:15.103Z,11
2022-12-03T02:19:15.217Z,10
2022-12-03T02:21:15.310Z,12
2022-12-03T02:23:15.456Z,11
2022-12-03T02:25:15.603Z,11
2022-12-03T02:27:15.653Z,12
2022-12-03T02:29:15.770Z,12
2022-12-03T02:31:15.962Z,10
2022-12-03T02:33:16.006Z,9
2022-12-03T02:35:16.124Z,9
2022-12-03T02:37:16.242Z,11
2022-12-03T02:39:16.358Z,11
2022-12-03T02:41:16.425Z,12
2022-12-03T02:43:16.548Z,10
2022-12-03T02:45:16.709Z,11
2022-12-03T02:47:16.775Z,10
2022-12-03T02:49:16.902Z,10
2022-12-03T02:51:17.000Z,11
2022-12-03T02:53:17.116Z,16
2022-12-03T02:55:17.191Z,14
2022-12-03T02:57:17.284Z,11
2022-12-03T02:59:17.414Z,11
2022-12-03T03:01:17.582Z,11
2022-12-03T03:03:17.650Z,12
2022-12-03T03:05:17.728Z,12
2022-12-03T03:07:17.859Z,10
2022-12-03T03:09:17.974Z,10
2022-12-03T03:11:18.086Z,13
2022-12-03T03:13:18.202Z,11
2022-12-03T03:15:18.314Z,11
2022-12-03T03:17:18.431Z,11
2022-12-03T03:19:18.545Z,11
2022-12-03T03:21:18.632Z,12
2022-12-03T03:23:18.759Z,12
2022-12-03T03:25:18.866Z,13
2022-12-03T03:27:18.948Z,11
2022-12-03T03:29:19.048Z,11
2022-12-03T03:33:19.265Z,10
2022-12-03T03:35:19.374Z,12
2022-12-03T03:37:19.448Z,12
2022-12-03T03:39:19.577Z,10
2022-12-03T03:41:19.676Z,12
2022-12-03T03:43:19.796Z,11
2022-12-03T03:45:24.007Z,11
2022-12-03T03:47:20.005Z,12
2022-12-03T03:49:20.104Z,10
2022-12-03T03:51:20.219Z,12
2022-12-03T03:53:20.332Z,10
2022-12-03T03:55:20.471Z,10
2022-12-03T03:57:20.535Z,9
2022-12-03T03:59:20.626Z,11
2022-12-03T04:01:20.823Z,10
2022-12-03T04:03:20.877Z,10
2022-12-03T04:05:20.978Z,9
2022-12-03T04:07:21.161Z,11
2022-12-03T04:09:21.197Z,12
2022-12-03T04:11:21.324Z,11
2022-12-03T04:15:21.537Z,10
2022-12-03T04:17:21.646Z,12
2022-12-03T04:19:21.752Z,12
2022-12-03T04:21:21.858Z,13
2022-12-03T04:23:25.003Z,15
2022-12-03T04:25:22.105Z,15
2022-12-03T04:27:22.164Z,17
2022-12-03T04:29:22.301Z,18
2022-12-03T04:31:22.494Z,14
2022-12-03T04:33:22.498Z,17
2022-12-03T04:35:22.700Z,18
2022-12-03T04:37:22.705Z,15
2022-12-03T04:39:22.827Z,10
2022-12-03T04:43:23.032Z,10
2022-12-03T04:45:23.145Z,11
2022-12-03T04:47:23.259Z,10
2022-12-03T04:49:23.421Z,11
2022-12-03T04:51:23.449Z,15
2022-12-03T04:53:23.584Z,11
2022-12-03T04:55:23.850Z,15
2022-12-03T04:57:23.782Z,14
2022-12-03T04:59:23.926Z,16
2022-12-03T05:01:24.133Z,14
2022-12-03T05:03:24.124Z,21
2022-12-03T05:05:24.253Z,16
2022-12-03T05:07:24.415Z,14
2022-12-03T05:09:24.624Z,14
2022-12-03T05:11:24.546Z,14
2022-12-03T05:13:24.707Z,13
2022-12-03T05:15:24.736Z,11
2022-12-03T05:17:24.861Z,11
2022-12-03T05:19:24.959Z,11
2022-12-03T05:21:25.092Z,11
2022-12-03T05:23:25.160Z,12
2022-12-03T05:25:25.283Z,12
2022-12-03T05:27:25.392Z,26
2022-12-03T05:29:25.490Z,15
2022-12-03T05:31:25.729Z,11
2022-12-03T05:33:25.703Z,11
2022-12-03T05:35:25.802Z,13
2022-12-03T05:37:25.876Z,10
2022-12-03T05:39:26.006Z,10
2022-12-03T05:41:26.119Z,11
2022-12-03T05:43:26.230Z,12
2022-12-03T05:45:26.311Z,11
2022-12-03T05:47:26.413Z,12
2022-12-03T05:49:26.514Z,10
2022-12-03T05:51:26.605Z,9
2022-12-03T05:53:26.721Z,12
2022-12-03T05:55:26.852Z,11
2022-12-03T05:57:26.932Z,15
2022-12-03T05:59:27.031Z,14
2022-12-03T06:01:27.102Z,14
2022-12-03T06:03:27.438Z,15
2022-12-03T06:05:27.330Z,15
2022-12-03T06:07:27.482Z,14
2022-12-03T06:09:27.532Z,12
2022-12-03T06:11:27.615Z,12
2022-12-03T06:13:27.722Z,11
2022-12-03T06:15:27.812Z,10
2022-12-03T06:17:27.894Z,19
2022-12-03T06:21:28.114Z,18
2022-12-03T06:23:28.230Z,15
2022-12-03T06:25:28.333Z,17
2022-12-03T06:27:28.428Z,15
2022-12-03T06:29:28.545Z,17
2022-12-03T06:31:28.747Z,19
2022-12-03T06:33:28.808Z,22
2022-12-03T06:35:28.835Z,24
2022-12-03T06:37:28.949Z,25
2022-12-03T06:39:29.072Z,27
2022-12-03T06:41:29.117Z,30
2022-12-03T06:43:29.238Z,31
2022-12-03T06:45:29.341Z,32
2022-12-03T06:47:29.459Z,31
2022-12-03T06:49:29.554Z,36
2022-12-03T06:51:29.637Z,39
2022-12-03T06:53:29.799Z,37
2022-12-03T06:55:29.851Z,36
2022-12-03T06:57:29.930Z,36
2022-12-03T06:59:30.014Z,33
2022-12-03T07:01:30.169Z,32
2022-12-03T07:03:30.215Z,32
2022-12-03T07:05:30.411Z,30
2022-12-03T07:07:30.479Z,27
2022-12-03T07:09:30.525Z,26
2022-12-03T07:11:30.638Z,27
2022-12-03T07:13:30.719Z,28
2022-12-03T07:15:30.910Z,26
2022-12-03T07:17:30.905Z,23
2022-12-03T07:19:32.853Z,21
2022-12-03T07:21:31.158Z,23
2022-12-03T07:23:31.219Z,25
2022-12-03T07:25:31.318Z,23
2022-12-03T07:27:31.373Z,21
2022-12-03T07:29:31.511Z,20
2022-12-03T07:31:31.700Z,20
2022-12-03T07:33:31.684Z,19
2022-12-03T07:35:31.784Z,21
2022-12-03T07:37:31.869Z,25
2022-12-03T07:39:31.983Z,25
2022-12-03T07:41:32.075Z,26
2022-12-03T07:43:32.154Z,30
2022-12-03T07:45:32.242Z,29
2022-12-03T07:47:32.356Z,30
2022-12-03T07:49:32.449Z,28
2022-12-03T07:51:32.611Z,28
2022-12-03T07:53:32.635Z,29
2022-12-03T07:55:32.724Z,27
2022-12-03T07:57:32.851Z,26
2022-12-03T07:59:32.927Z,23
2022-12-03T08:01:33.112Z,23
2022-12-03T08:03:33.107Z,24
2022-12-03T08:05:33.217Z,25
2022-12-03T08:07:33.330Z,32
2022-12-03T08:09:33.406Z,47
2022-12-03T08:11:33.498Z,54
2022-12-03T08:13:33.570Z,64
2022-12-03T08:15:37.262Z,61
2022-12-03T08:17:33.793Z,58
2022-12-03T08:19:33.876Z,49
2022-12-03T08:21:33.975Z,44
2022-12-03T08:23:34.090Z,36
2022-12-03T08:25:34.219Z,35
2022-12-03T08:27:34.264Z,30
2022-12-03T08:29:34.345Z,34
2022-12-03T08:31:34.478Z,34
2022-12-03T08:33:34.542Z,40
2022-12-03T08:35:34.618Z,37
2022-12-03T08:37:34.737Z,35
2022-12-03T08:39:34.832Z,34
2022-12-03T08:41:34.903Z,33
2022-12-03T08:43:34.988Z,30
2022-12-03T08:45:35.278Z,31
2022-12-03T08:47:35.201Z,29
2022-12-03T08:49:35.310Z,24
2022-12-03T08:51:35.383Z,24
2022-12-03T08:53:35.484Z,27
2022-12-03T08:55:35.557Z,27
2022-12-03T08:57:35.633Z,26
2022-12-03T08:59:35.729Z,22
2022-12-03T09:01:35.934Z,26
2022-12-03T09:03:35.922Z,22
2022-12-03T09:05:36.040Z,27
2022-12-03T09:07:36.165Z,29
2022-12-03T09:09:36.204Z,25
2022-12-03T09:11:36.282Z,26
2022-12-03T09:13:36.383Z,23
2022-12-03T09:15:36.460Z,23
2022-12-03T09:17:36.573Z,27
2022-12-03T09:19:40.055Z,24
2022-12-03T09:21:36.719Z,23
2022-12-03T09:23:36.823Z,24
2022-12-03T09:25:36.885Z,27
2022-12-03T09:27:36.963Z,34
2022-12-03T09:29:37.114Z,38
2022-12-03T09:31:37.224Z,38
2022-12-03T09:33:37.231Z,33
2022-12-03T09:35:37.334Z,29
2022-12-03T09:37:37.435Z,32
2022-12-03T09:39:37.535Z,29
2022-12-03T09:41:37.597Z,31
2022-12-03T09:44:03.146Z,27
2022-12-03T09:45:37.800Z,25
2022-12-03T09:47:37.902Z,26
2022-12-03T09:49:37.925Z,22
2022-12-03T09:52:08.196Z,21
2022-12-03T09:54:08.177Z,22
2022-12-03T09:56:08.284Z,19
2022-12-03T09:58:08.396Z,19
2022-12-03T10:00:08.500Z,17
2022-12-03T10:02:08.680Z,15
2022-12-03T10:04:08.766Z,17
2022-12-03T10:06:08.853Z,16
2022-12-03T10:08:09.105Z,13
2022-12-03T10:10:09.090Z,15
2022-12-03T10:12:09.184Z,15
2022-12-03T10:14:09.283Z,15
2022-12-03T10:16:09.404Z,15
2022-12-03T10:18:09.528Z,17
2022-12-03T10:20:09.623Z,17
2022-12-03T10:22:09.729Z,18
2022-12-03T10:24:09.858Z,19
2022-12-03T10:26:09.951Z,17
2022-12-03T10:28:10.024Z,18
2022-12-03T10:30:10.131Z,17
2022-12-03T10:32:10.267Z,18
2022-12-03T10:34:10.375Z,18
2022-12-03T10:36:10.459Z,18
2022-12-03T10:38:10.583Z,20
2022-12-03T10:40:10.691Z,21
2022-12-03T10:42:10.807Z,20
2022-12-03T10:44:10.919Z,17
2022-12-03T10:46:11.149Z,19
2022-12-03T10:48:11.104Z,20
2022-12-03T10:50:11.228Z,22
2022-12-03T10:52:11.350Z,21
2022-12-03T10:54:11.431Z,23
2022-12-03T10:56:11.546Z,24
2022-12-03T10:58:11.634Z,40
2022-12-03T11:00:11.749Z,33
2022-12-03T11:02:11.847Z,22
2022-12-03T11:04:11.938Z,18
2022-12-03T11:06:12.052Z,21
2022-12-03T11:08:12.246Z,23
2022-12-03T11:10:12.264Z,18
2022-12-03T11:12:12.362Z,23
2022-12-03T11:14:13.963Z,21
2022-12-03T11:16:12.642Z,19
2022-12-03T11:18:12.694Z,18
2022-12-03T11:20:16.811Z,17
2022-12-03T11:22:12.832Z,16
2022-12-03T11:24:12.932Z,16
2022-12-03T11:26:18.408Z,19
2022-12-03T11:28:13.194Z,20
2022-12-03T11:30:13.246Z,18
2022-12-03T11:32:13.326Z,18
2022-12-03T11:34:13.429Z,16
2022-12-03T11:36:13.497Z,18
2022-12-03T11:38:13.619Z,18
2022-12-03T11:40:13.713Z,18
2022-12-03T11:42:13.812Z,21
2022-12-03T11:44:13.882Z,21
2022-12-03T11:46:13.997Z,20
2022-12-03T11:48:14.078Z,21
2022-12-03T11:50:14.204Z,52
2022-12-03T11:52:14.307Z,156
2022-12-03T11:54:14.352Z,106
2022-12-03T11:56:14.489Z,49
2022-12-03T11:58:14.566Z,41
2022-12-03T12:00:14.718Z,27
2022-12-03T12:02:14.802Z,24
2022-12-03T12:04:14.923Z,24
2022-12-03T12:06:14.963Z,24
2022-12-03T12:08:15.193Z,21
2022-12-03T12:10:15.234Z,19
2022-12-03T12:12:15.259Z,21
2022-12-03T12:14:15.350Z,38
2022-12-03T12:16:15.504Z,25
2022-12-03T12:18:15.520Z,39
2022-12-03T12:20:15.621Z,54
2022-12-03T12:22:15.790Z,38
2022-12-03T12:24:15.814Z,37
2022-12-03T12:26:15.876Z,28
2022-12-03T12:28:16.040Z,52
2022-12-03T12:30:16.066Z,33
2022-12-03T12:32:16.151Z,35
2022-12-03T12:34:16.246Z,31
2022-12-03T12:36:16.380Z,37
2022-12-03T12:38:16.450Z,24
2022-12-03T12:40:16.547Z,23
2022-12-03T12:42:16.647Z,22
2022-12-03T12:44:16.744Z,15
2022-12-03T12:46:46.791Z,12
2022-12-03T12:48:16.938Z,14
2022-12-03T12:50:16.972Z,13
2022-12-03T12:52:17.070Z,19
2022-12-03T12:54:17.173Z,18
2022-12-03T12:56:17.255Z,27
2022-12-03T12:58:17.345Z,22
2022-12-03T13:00:17.431Z,21
2022-12-03T13:04:17.631Z,25
2022-12-03T13:06:17.715Z,25
2022-12-03T13:08:17.936Z,24
2022-12-03T13:10:17.872Z,21
2022-12-03T13:12:17.943Z,18
2022-12-03T13:14:18.065Z,18
2022-12-03T13:16:18.179Z,29
2022-12-03T13:18:18.212Z,22
2022-12-03T13:20:18.311Z,20
2022-12-03T13:22:18.379Z,21
2022-12-03T13:24:18.475Z,23
2022-12-03T13:26:30.429Z,18
2022-12-03T13:28:18.684Z,21
2022-12-03T13:30:18.704Z,19
2022-12-03T13:32:18.804Z,20
2022-12-03T13:34:18.887Z,22
2022-12-03T13:36:18.982Z,21
2022-12-03T13:38:19.073Z,23
2022-12-03T13:40:19.139Z,22
2022-12-03T13:42:19.225Z,20
2022-12-03T13:44:19.308Z,23
2022-12-03T13:46:49.436Z,21
2022-12-03T13:48:49.616Z,19
2022-12-03T13:50:49.706Z,17
2022-12-03T13:52:49.829Z,19
2022-12-03T13:56:50.066Z,19
2022-12-03T13:58:50.163Z,21
2022-12-03T14:00:50.346Z,22
2022-12-03T14:02:50.498Z,25
2022-12-03T14:04:54.099Z,23
2022-12-03T14:06:50.627Z,16
2022-12-03T14:08:50.744Z,21
2022-12-03T14:10:54.232Z,22
2022-12-03T14:12:50.973Z,23
2022-12-03T14:14:51.087Z,18
2022-12-03T14:16:54.139Z,16
2022-12-03T14:18:51.300Z,16
2022-12-03T14:20:51.422Z,19
2022-12-03T14:22:56.395Z,14
2022-12-03T14:24:51.640Z,20
2022-12-03T14:26:51.767Z,18
2022-12-03T14:28:51.879Z,18
2022-12-03T14:30:52.007Z,14
2022-12-03T14:32:52.297Z,35
2022-12-03T14:34:52.208Z,24
2022-12-03T14:36:52.331Z,19
2022-12-03T14:38:52.441Z,19
2022-12-03T14:40:52.529Z,19
2022-12-03T14:42:52.632Z,18
2022-12-03T14:44:52.779Z,19
2022-12-03T14:46:57.016Z,19
2022-12-03T14:48:52.963Z,22
2022-12-03T14:50:53.114Z,18
2022-12-03T14:52:53.181Z,19
2022-12-03T14:54:53.294Z,21
2022-12-03T14:56:53.408Z,23
2022-12-03T14:58:53.524Z,21
2022-12-03T15:00:53.672Z,26
2022-12-03T15:02:53.784Z,27
2022-12-03T15:04:53.879Z,31
2022-12-03T15:06:53.948Z,35
2022-12-03T15:08:54.083Z,35
2022-12-03T15:10:54.214Z,33
2022-12-03T15:14:54.394Z,39
2022-12-03T15:16:54.602Z,41
2022-12-03T15:18:54.599Z,40
2022-12-03T15:20:54.719Z,31
2022-12-03T15:22:54.794Z,31
2022-12-03T15:24:54.910Z,28
2022-12-03T15:26:55.002Z,25
2022-12-03T15:28:55.127Z,26
2022-12-03T15:30:55.298Z,30
2022-12-03T15:32:55.337Z,24
2022-12-03T15:34:55.422Z,26
2022-12-03T15:36:55.538Z,150
2022-12-03T15:38:55.614Z,156
2022-12-03T15:40:55.725Z,92
2022-12-03T15:42:55.823Z,66
2022-12-03T15:44:55.931Z,54
2022-12-03T15:46:56.040Z,47
2022-12-03T15:48:56.142Z,46
2022-12-03T15:50:56.255Z,50
2022-12-03T15:52:56.360Z,47
2022-12-03T15:54:56.450Z,45
2022-12-03T15:56:57.489Z,40
2022-12-03T15:58:56.664Z,35
2022-12-03T16:00:56.755Z,33
2022-12-03T16:02:56.970Z,54
2022-12-03T16:04:56.980Z,55
2022-12-03T16:06:57.075Z,49
2022-12-03T16:08:57.185Z,56
2022-12-03T16:10:57.251Z,60
2022-12-03T16:12:57.371Z,98
2022-12-03T16:14:57.464Z,101
2022-12-03T16:16:57.574Z,74
2022-12-03T16:18:57.656Z,55
2022-12-03T16:20:57.766Z,37
2022-12-03T16:22:57.860Z,34
2022-12-03T16:24:57.956Z,41
2022-12-03T16:26:58.060Z,41
2022-12-03T16:28:58.141Z,56
2022-12-03T16:30:58.344Z,81
2022-12-03T16:32:58.341Z,77
2022-12-03T16:34:58.454Z,66
2022-12-03T16:36:58.533Z,65
2022-12-03T16:38:58.649Z,59
2022-12-03T16:40:58.747Z,56
2022-12-03T16:42:58.877Z,56
2022-12-03T16:44:58.942Z,51
2022-12-03T16:46:59.049Z,52
2022-12-03T16:48:59.172Z,61
2022-12-03T16:50:59.259Z,68
2022-12-03T16:52:59.360Z,69
2022-12-03T16:54:59.442Z,63
2022-12-03T16:56:59.564Z,52
2022-12-03T16:58:59.636Z,54
2022-12-03T17:00:59.752Z,55
2022-12-03T17:02:59.943Z,50
2022-12-03T17:04:59.960Z,52
2022-12-03T17:07:00.078Z,49
2022-12-03T17:09:00.146Z,43
2022-12-03T17:11:00.313Z,39
2022-12-03T17:13:09.273Z,41
2022-12-03T17:15:00.439Z,43
2022-12-03T17:17:00.531Z,42
2022-12-03T17:19:00.607Z,44
2022-12-03T17:21:00.717Z,45
2022-12-03T17:23:00.827Z,47
2022-12-03T17:25:00.985Z,44
2022-12-03T17:27:01.034Z,42
2022-12-03T17:29:01.105Z,35
2022-12-03T17:31:01.324Z,35
2022-12-03T17:33:01.314Z,30
2022-12-03T17:35:01.409Z,30
2022-12-03T17:37:01.516Z,31
2022-12-03T17:39:01.605Z,40
2022-12-03T17:41:01.700Z,48
2022-12-03T17:43:01.788Z,52
2022-12-03T17:45:01.892Z,59
2022-12-03T17:47:02.004Z,46
2022-12-03T17:49:02.066Z,45
2022-12-03T17:51:02.173Z,40
2022-12-03T17:53:02.248Z,32
2022-12-03T17:55:11.741Z,35
2022-12-03T17:57:02.439Z,37
2022-12-03T17:59:02.560Z,40
2022-12-03T18:01:03.294Z,39
2022-12-03T18:03:02.724Z,47
2022-12-03T18:05:02.846Z,41
2022-12-03T18:07:02.902Z,39
2022-12-03T18:09:03.009Z,32
2022-12-03T18:11:03.094Z,29
2022-12-03T18:13:03.203Z,31
2022-12-03T18:15:03.298Z,35
2022-12-03T18:17:03.362Z,43
2022-12-03T18:19:06.398Z,30
2022-12-03T18:21:03.532Z,30
2022-12-03T18:23:03.643Z,36
2022-12-03T18:25:03.706Z,50
2022-12-03T18:27:03.856Z,35
2022-12-03T18:29:03.909Z,29
2022-12-03T18:31:04.078Z,30
2022-12-03T18:33:04.099Z,37
2022-12-03T18:35:04.173Z,35
2022-12-03T18:37:04.295Z,38
2022-12-03T18:39:04.373Z,29
2022-12-03T18:41:04.475Z,30
2022-12-03T18:43:04.541Z,30
2022-12-03T18:45:04.646Z,30
2022-12-03T18:47:04.868Z,44
2022-12-03T18:49:04.829Z,64
2022-12-03T18:51:04.999Z,71
2022-12-03T18:53:05.021Z,73
2022-12-03T18:55:05.156Z,73
2022-12-03T18:57:05.224Z,77
2022-12-03T18:59:05.386Z,79
2022-12-03T19:01:05.425Z,82
2022-12-03T19:03:05.658Z,79
2022-12-03T19:05:05.597Z,124
2022-12-03T19:07:05.730Z,183
2022-12-03T19:09:05.774Z,97
2022-12-03T19:11:05.854Z,85
2022-12-03T19:13:05.940Z,54
2022-12-03T19:15:06.007Z,49
2022-12-03T19:17:06.100Z,65
2022-12-03T19:19:06.182Z,113
2022-12-03T19:21:06.269Z,131
2022-12-03T19:23:06.381Z,86
2022-12-03T19:25:06.467Z,72
2022-12-03T19:27:06.544Z,52
2022-12-03T19:29:06.638Z,52
2022-12-03T19:31:06.751Z,54
2022-12-03T19:33:06.794Z,40
2022-12-03T19:35:06.918Z,38
2022-12-03T19:37:07.005Z,35
2022-12-03T19:39:07.087Z,34
2022-12-03T19:41:07.169Z,31
2022-12-03T19:43:37.293Z,31
2022-12-03T19:45:37.507Z,36
2022-12-03T19:47:37.531Z,38
2022-12-03T19:49:37.633Z,35
2022-12-03T19:51:37.764Z,39
2022-12-03T19:53:37.832Z,35
2022-12-03T19:55:37.949Z,34
2022-12-03T19:57:38.096Z,38
2022-12-03T19:59:38.204Z,46
2022-12-03T20:01:38.431Z,38
2022-12-03T20:03:38.440Z,35
2022-12-03T20:05:38.563Z,36
2022-12-03T20:07:38.834Z,39
2022-12-03T20:09:38.803Z,29
2022-12-03T20:11:38.907Z,31
2022-12-03T20:13:39.041Z,31
2022-12-03T20:15:39.134Z,33
2022-12-03T20:17:39.249Z,37
2022-12-03T20:19:39.366Z,41
2022-12-03T20:21:39.513Z,46
2022-12-03T20:23:39.613Z,31
2022-12-03T20:25:39.718Z,30
2022-12-03T20:27:39.835Z,32
2022-12-03T20:29:39.956Z,33
2022-12-03T20:31:40.134Z,38
2022-12-03T20:33:40.186Z,36
2022-12-03T20:35:40.322Z,37
2022-12-03T20:37:40.441Z,33
2022-12-03T20:39:40.542Z,32
2022-12-03T20:41:40.654Z,31
2022-12-03T20:43:40.755Z,32
2022-12-03T20:45:40.943Z,42
2022-12-03T20:47:41.011Z,46
2022-12-03T20:49:41.183Z,42
2022-12-03T20:51:41.250Z,43
2022-12-03T20:53:41.343Z,48
2022-12-03T20:55:41.471Z,38
2022-12-03T20:57:41.536Z,38
2022-12-03T20:59:41.655Z,35
2022-12-03T21:01:41.902Z,29
2022-12-03T21:03:41.882Z,29
2022-12-03T21:05:42.022Z,30
2022-12-03T21:07:42.207Z,29
2022-12-03T21:09:42.278Z,25
2022-12-03T21:11:42.386Z,25
2022-12-03T21:13:42.449Z,27
2022-12-03T21:15:42.568Z,29
2022-12-03T21:17:42.754Z,27
2022-12-03T21:19:42.778Z,31
2022-12-03T21:21:42.922Z,28
2022-12-03T21:23:43.001Z,30
2022-12-03T21:25:43.106Z,32
2022-12-03T21:27:43.221Z,31
2022-12-03T21:29:43.390Z,31
2022-12-03T21:31:43.445Z,31
2022-12-03T21:33:43.572Z,32
2022-12-03T21:35:43.649Z,45
2022-12-03T21:37:43.740Z,46
2022-12-03T21:39:43.876Z,55
2022-12-03T21:42:18.920Z,53
2022-12-03T21:43:44.074Z,51
2022-12-03T21:45:44.219Z,50
2022-12-03T21:47:44.366Z,47
2022-12-03T21:49:44.402Z,46
2022-12-03T21:51:44.497Z,43
2022-12-03T21:53:44.625Z,41
2022-12-03T21:55:44.716Z,34
2022-12-03T21:57:44.830Z,26
2022-12-03T21:59:44.915Z,15
2022-12-03T22:01:47.382Z,17
2022-12-03T22:03:45.115Z,19
2022-12-03T22:05:45.232Z,20
2022-12-03T22:07:45.439Z,22
2022-12-03T22:09:45.459Z,21
2022-12-03T22:11:45.571Z,24
2022-12-03T22:13:45.639Z,25
2022-12-03T22:15:45.790Z,24
2022-12-03T22:17:45.878Z,24
2022-12-03T22:19:45.986Z,23
2022-12-03T22:21:46.100Z,23
2022-12-03T22:23:46.200Z,24
2022-12-03T22:25:46.317Z,23
2022-12-03T22:27:46.429Z,22
2022-12-03T22:29:46.515Z,21
2022-12-03T22:31:46.693Z,22
2022-12-03T22:33:46.737Z,20
2022-12-03T22:35:46.815Z,22
2022-12-03T22:37:46.885Z,20
2022-12-03T22:39:46.997Z,22
2022-12-03T22:41:47.099Z,24
2022-12-03T22:43:47.236Z,23
2022-12-03T22:45:47.348Z,22
2022-12-03T22:47:47.458Z,26
2022-12-03T22:49:47.572Z,25
2022-12-03T22:51:47.665Z,28
2022-12-03T22:53:47.774Z,22
2022-12-03T22:55:47.876Z,23
2022-12-03T22:57:47.981Z,24
2022-12-03T22:59:48.077Z,23
2022-12-03T23:01:48.166Z,24
2022-12-03T23:03:48.338Z,21
2022-12-03T23:05:48.370Z,20
2022-12-03T23:07:48.562Z,21
2022-12-03T23:11:48.684Z,18
2022-12-03T23:13:48.812Z,16
2022-12-03T23:15:48.986Z,14
2022-12-03T23:17:48.998Z,13
2022-12-03T23:19:49.104Z,14
2022-12-03T23:21:49.213Z,15
2022-12-03T23:23:49.316Z,15
2022-12-03T23:25:49.405Z,15
2022-12-03T23:27:49.518Z,18
2022-12-03T23:29:49.638Z,20
2022-12-03T23:31:49.849Z,17
2022-12-03T23:33:49.850Z,25
2022-12-03T23:35:49.927Z,22
2022-12-03T23:37:50.038Z,21
2022-12-03T23:39:50.143Z,18
2022-12-03T23:41:50.248Z,14
2022-12-03T23:43:50.341Z,15
2022-12-03T23:45:50.458Z,12
2022-12-03T23:47:56.608Z,11
2022-12-03T23:51:50.742Z,13
2022-12-03T23:53:51.180Z,14
2022-12-03T23:55:50.953Z,12
2022-12-03T23:57:51.043Z,13
2022-12-03T23:59:51.232Z,14
